createdAt,value
2023-02-11T00:00:42.982Z,58.08
2023-02-11T00:03:10.515Z,59.03
2023-02-11T00:05:37.770Z,47.92
2023-02-11T00:08:05.026Z,53.42
2023-02-11T00:10:31.974Z,53.75
2023-02-11T00:12:58.915Z,57.85
2023-02-11T00:15:26.088Z,54.50
2023-02-11T00:17:53.427Z,61.40
2023-02-11T00:20:20.433Z,57.95
2023-02-11T00:22:50.371Z,57.60
2023-02-11T00:25:17.421Z,56.17
2023-02-11T00:27:44.331Z,55.83
2023-02-11T00:30:13.214Z,64.53
2023-02-11T00:32:42.581Z,57.90
2023-02-11T00:35:09.817Z,62.13
2023-02-11T00:37:36.889Z,65.78
2023-02-11T00:40:07.591Z,66.57
2023-02-11T00:42:35.724Z,57.13
2023-02-11T00:45:02.840Z,61.05
2023-02-11T00:47:29.974Z,62.53
2023-02-11T00:49:57.129Z,61.10
2023-02-11T00:52:24.197Z,60.17
2023-02-11T00:54:51.416Z,60.50
2023-02-11T00:57:18.566Z,70.10
2023-02-11T00:59:45.460Z,65.60
2023-02-11T01:02:12.373Z,65.05
2023-02-11T01:04:39.332Z,61.28
2023-02-11T01:07:07.487Z,64.50
2023-02-11T01:09:34.426Z,67.20
2023-02-11T01:12:01.470Z,67.38
2023-02-11T01:14:28.586Z,69.32
2023-02-11T01:16:55.644Z,69.10
2023-02-11T01:19:22.717Z,62.83
2023-02-11T01:21:52.318Z,68.13
2023-02-11T01:24:22.145Z,64.95
2023-02-11T01:26:49.115Z,67.57
2023-02-11T01:29:16.003Z,68.38
2023-02-11T01:31:43.127Z,69.35
2023-02-11T01:34:10.546Z,65.32
2023-02-11T01:36:37.802Z,66.00
2023-02-11T01:39:04.756Z,64.22
2023-02-11T01:41:31.885Z,59.40
2023-02-11T01:43:58.913Z,58.80
2023-02-11T01:46:37.085Z,54.40
2023-02-11T01:49:14.782Z,59.90
2023-02-11T01:52:00.533Z,55.45
2023-02-11T01:54:51.172Z,56.88
2023-02-11T01:57:25.317Z,53.72
2023-02-11T02:00:04.598Z,58.25
2023-02-11T02:02:50.857Z,44.67
2023-02-11T02:06:03.730Z,48.90
2023-02-11T02:09:04.754Z,48.40
2023-02-11T02:11:31.987Z,48.83
2023-02-11T02:13:59.321Z,47.70
2023-02-11T02:16:39.511Z,59.65
2023-02-11T02:19:29.466Z,45.75
2023-02-11T02:22:39.126Z,46.75
2023-02-11T02:25:35.056Z,46.50
2023-02-11T02:28:38.662Z,45.38
2023-02-11T02:31:14.540Z,43.63
2023-02-11T02:33:52.519Z,43.05
2023-02-11T02:36:43.331Z,45.60
2023-02-11T02:39:27.924Z,40.33
2023-02-11T02:41:56.196Z,45.28
2023-02-11T02:44:23.118Z,48.35
2023-02-11T02:46:50.116Z,49.17
2023-02-11T02:49:17.426Z,44.75
2023-02-11T02:51:50.403Z,44.97
2023-02-11T02:54:53.481Z,43.50
2023-02-11T02:57:42.177Z,43.33
2023-02-11T03:00:19.820Z,41.80
2023-02-11T03:03:17.921Z,37.08
2023-02-11T03:05:57.176Z,35.83
2023-02-11T03:08:43.619Z,38.72
2023-02-11T03:11:12.586Z,41.28
2023-02-11T03:13:41.178Z,39.90
2023-02-11T03:16:29.792Z,41.17
2023-02-11T03:19:06.507Z,42.03
2023-02-11T03:21:35.704Z,40.78
2023-02-11T03:24:08.815Z,40.35
2023-02-11T03:26:44.252Z,37.15
2023-02-11T03:29:23.328Z,39.42
2023-02-11T03:32:01.170Z,31.40
2023-02-11T03:34:43.990Z,37.20
2023-02-11T03:37:35.487Z,35.42
2023-02-11T03:40:05.718Z,35.05
2023-02-11T03:42:41.267Z,36.40
2023-02-11T03:45:15.516Z,36.38
2023-02-11T03:47:47.572Z,32.75
2023-02-11T03:50:16.138Z,35.67
2023-02-11T03:52:43.994Z,33.75
2023-02-11T03:55:15.774Z,35.70
2023-02-11T03:57:42.928Z,36.65
2023-02-11T04:00:11.444Z,36.70
2023-02-11T04:02:39.696Z,34.95
2023-02-11T04:05:09.123Z,38.15
2023-02-11T04:07:36.210Z,35.00
2023-02-11T04:10:03.241Z,38.40
2023-02-11T04:12:30.242Z,33.53
2023-02-11T04:14:57.221Z,34.40
2023-02-11T04:17:24.534Z,35.15
2023-02-11T04:19:51.443Z,36.97
2023-02-11T04:22:18.503Z,42.25
2023-02-11T04:24:45.466Z,39.92
2023-02-11T04:27:12.726Z,48.45
2023-02-11T04:29:39.761Z,42.65
2023-02-11T04:32:06.799Z,37.17
2023-02-11T04:34:33.689Z,43.85
2023-02-11T04:37:00.932Z,39.40
2023-02-11T04:39:27.941Z,35.75
2023-02-11T04:41:55.089Z,43.17
2023-02-11T04:44:22.203Z,38.25
2023-02-11T04:46:49.360Z,35.20
2023-02-11T04:49:17.031Z,42.83
2023-02-11T04:51:49.365Z,41.08
2023-02-11T04:54:17.524Z,41.75
2023-02-11T04:56:44.868Z,38.67
2023-02-11T04:59:13.412Z,35.47
2023-02-11T05:01:40.689Z,47.17
2023-02-11T05:04:08.012Z,40.20
2023-02-11T05:06:35.006Z,41.92
2023-02-11T05:09:01.925Z,36.58
2023-02-11T05:11:28.802Z,43.42
2023-02-11T05:13:55.802Z,42.58
2023-02-11T05:16:22.818Z,40.40
2023-02-11T05:18:52.395Z,41.45
2023-02-11T05:21:20.071Z,37.75
2023-02-11T05:23:47.411Z,43.17
2023-02-11T05:26:15.439Z,37.05
2023-02-11T05:28:42.918Z,43.55
2023-02-11T05:31:09.994Z,32.47
2023-02-11T05:33:37.071Z,31.92
2023-02-11T05:36:11.084Z,34.15
2023-02-11T05:38:39.020Z,30.52
2023-02-11T05:41:06.701Z,28.65
2023-02-11T05:43:35.406Z,28.10
2023-02-11T05:46:06.229Z,32.67
2023-02-11T05:48:33.678Z,26.10
2023-02-11T05:51:00.709Z,29.30
2023-02-11T05:53:27.562Z,30.33
2023-02-11T05:55:54.635Z,28.05
2023-02-11T05:58:21.559Z,30.98
2023-02-11T06:00:49.002Z,33.35
2023-02-11T06:03:16.025Z,29.90
2023-02-11T06:05:44.673Z,31.13
2023-02-11T06:08:12.196Z,30.50
2023-02-11T06:10:39.386Z,33.03
2023-02-11T06:13:06.446Z,29.83
2023-02-11T06:15:33.391Z,32.10
2023-02-11T06:18:00.616Z,29.80
2023-02-11T06:20:28.037Z,29.10
2023-02-11T06:22:55.275Z,30.60
2023-02-11T06:25:22.137Z,30.77
2023-02-11T06:27:49.237Z,27.20
2023-02-11T06:30:17.338Z,29.77
2023-02-11T06:32:45.591Z,26.50
2023-02-11T06:35:14.628Z,30.33
2023-02-11T06:37:42.694Z,32.08
2023-02-11T06:40:10.977Z,30.40
2023-02-11T06:42:39.186Z,35.10
2023-02-11T06:45:09.485Z,30.95
2023-02-11T06:47:37.342Z,36.90
2023-02-11T06:50:06.166Z,29.65
2023-02-11T06:52:33.916Z,32.35
2023-02-11T06:55:00.980Z,32.88
2023-02-11T06:57:28.269Z,32.92
2023-02-11T06:59:55.700Z,31.83
2023-02-11T07:02:23.144Z,36.88
2023-02-11T07:04:50.195Z,33.65
2023-02-11T07:07:17.193Z,35.42
2023-02-11T07:09:44.178Z,31.67
2023-02-11T07:12:11.095Z,32.55
2023-02-11T07:14:38.404Z,29.13
2023-02-11T07:17:05.655Z,28.83
2023-02-11T07:19:32.831Z,27.52
2023-02-11T07:21:59.812Z,31.33
2023-02-11T07:24:27.214Z,31.58
2023-02-11T07:26:54.623Z,31.40
2023-02-11T07:29:21.896Z,32.33
2023-02-11T07:31:49.188Z,31.42
2023-02-11T07:34:19.603Z,29.55
2023-02-11T07:36:46.626Z,28.88
2023-02-11T07:39:15.563Z,28.80
2023-02-11T07:41:43.090Z,34.35
2023-02-11T07:44:10.362Z,35.03
2023-02-11T07:46:37.797Z,35.10
2023-02-11T07:49:04.982Z,33.38
2023-02-11T07:51:32.157Z,33.83
2023-02-11T07:54:00.269Z,32.40
2023-02-11T07:56:28.479Z,30.60
2023-02-11T07:58:59.800Z,30.10
2023-02-11T08:01:28.677Z,28.70
2023-02-11T08:03:57.577Z,34.75
2023-02-11T08:06:26.534Z,27.27
2023-02-11T08:08:53.813Z,26.33
2023-02-11T08:11:28.680Z,26.60
2023-02-11T08:13:56.884Z,25.60
2023-02-11T08:16:27.770Z,25.90
2023-02-11T08:18:57.857Z,24.60
2023-02-11T08:21:25.299Z,26.52
2023-02-11T08:23:54.315Z,24.85
2023-02-11T08:26:24.303Z,26.35
2023-02-11T08:28:53.291Z,24.90
2023-02-11T08:31:23.767Z,25.20
2023-02-11T08:33:50.982Z,22.90
2023-02-11T08:36:22.190Z,26.83
2023-02-11T08:38:50.178Z,27.55
2023-02-11T08:41:17.785Z,27.88
2023-02-11T08:43:46.614Z,26.08
2023-02-11T08:46:16.274Z,24.33
2023-02-11T08:48:43.839Z,26.67
2023-02-11T08:51:15.147Z,28.92
2023-02-11T08:53:42.136Z,25.85
2023-02-11T08:56:12.889Z,24.65
2023-02-11T08:58:40.788Z,25.27
2023-02-11T09:01:15.494Z,23.95
2023-02-11T09:03:42.654Z,24.25
2023-02-11T09:06:11.011Z,26.13
2023-02-11T09:08:40.479Z,24.23
2023-02-11T09:11:08.946Z,22.50
2023-02-11T09:13:36.156Z,21.85
2023-02-11T09:16:04.927Z,22.55
2023-02-11T09:18:32.658Z,22.88
2023-02-11T09:21:08.389Z,24.90
2023-02-11T09:23:35.978Z,36.10
2023-02-11T09:26:09.370Z,21.90
2023-02-11T09:28:36.867Z,25.27
2023-02-11T09:31:11.724Z,27.13
2023-02-11T09:33:42.185Z,27.27
2023-02-11T09:36:09.533Z,24.65
2023-02-11T09:38:36.484Z,24.83
2023-02-11T09:41:07.840Z,24.45
2023-02-11T09:43:44.604Z,26.33
2023-02-11T09:46:16.853Z,25.10
2023-02-11T09:48:47.476Z,25.08
2023-02-11T09:51:41.315Z,25.30
2023-02-11T09:54:17.720Z,23.55
2023-02-11T09:56:44.631Z,24.38
2023-02-11T09:59:17.696Z,22.75
2023-02-11T10:01:56.479Z,26.02
2023-02-11T10:04:38.503Z,23.35
2023-02-11T10:07:40.560Z,24.10
2023-02-11T10:10:41.181Z,24.98
2023-02-11T10:13:20.136Z,23.38
2023-02-11T10:15:58.740Z,25.00
2023-02-11T10:18:49.895Z,25.85
2023-02-11T10:21:50.731Z,25.35
2023-02-11T10:24:18.354Z,27.05
2023-02-11T10:26:46.064Z,27.70
2023-02-11T10:29:31.893Z,24.48
2023-02-11T10:32:00.747Z,28.65
2023-02-11T10:34:27.994Z,28.60
2023-02-11T10:36:54.929Z,24.70
2023-02-11T10:39:24.145Z,24.17
2023-02-11T10:42:05.265Z,25.65
2023-02-11T10:44:55.095Z,24.40
2023-02-11T10:47:27.404Z,22.85
2023-02-11T10:49:55.023Z,28.48
2023-02-11T10:52:24.051Z,24.05
2023-02-11T10:54:56.736Z,24.23
2023-02-11T10:57:30.128Z,22.35
2023-02-11T11:00:06.483Z,17.95
2023-02-11T11:02:36.862Z,19.65
2023-02-11T11:05:14.806Z,18.13
2023-02-11T11:07:52.812Z,16.38
2023-02-11T11:10:43.712Z,19.80
2023-02-11T11:13:40.259Z,14.60
2023-02-11T11:16:14.753Z,15.93
2023-02-11T11:18:45.675Z,16.23
2023-02-11T11:21:20.471Z,15.80
2023-02-11T11:23:50.701Z,15.85
2023-02-11T11:26:18.565Z,17.10
2023-02-11T11:29:08.228Z,15.77
2023-02-11T11:31:49.195Z,21.73
2023-02-11T11:34:31.702Z,16.50
2023-02-11T11:37:01.335Z,12.55
2023-02-11T11:39:31.601Z,14.75
2023-02-11T11:42:01.224Z,14.05
2023-02-11T11:44:33.618Z,15.57
2023-02-11T11:47:13.548Z,14.95
2023-02-11T11:49:59.222Z,13.50
2023-02-11T11:52:53.763Z,12.63
2023-02-11T11:55:32.158Z,13.63
2023-02-11T11:57:59.106Z,13.68
2023-02-11T12:00:54.860Z,11.48
2023-02-11T12:03:51.085Z,11.60
2023-02-11T12:06:41.217Z,11.75
2023-02-11T12:09:25.935Z,11.77
2023-02-11T12:12:17.423Z,12.93
2023-02-11T12:15:02.807Z,14.77
2023-02-11T12:18:09.201Z,13.70
2023-02-11T12:20:54.449Z,10.30
2023-02-11T12:23:43.303Z,12.48
2023-02-11T12:26:20.863Z,11.50
2023-02-11T12:29:08.455Z,9.65
2023-02-11T12:32:04.708Z,10.63
2023-02-11T12:35:01.864Z,12.82
2023-02-11T12:37:37.419Z,10.45
2023-02-11T12:40:24.916Z,10.27
2023-02-11T12:43:16.658Z,9.55
2023-02-11T12:46:13.919Z,13.18
2023-02-11T12:49:08.851Z,13.50
2023-02-11T12:52:11.869Z,11.50
2023-02-11T12:54:56.441Z,11.73
2023-02-11T12:57:27.786Z,12.95
2023-02-11T13:00:20.134Z,10.82
2023-02-11T13:02:54.607Z,10.90
2023-02-11T13:05:46.797Z,7.47
2023-02-11T13:08:16.480Z,7.80
2023-02-11T13:10:52.302Z,9.50
2023-02-11T13:13:49.736Z,10.63
2023-02-11T13:16:37.031Z,7.30
2023-02-11T13:19:12.869Z,11.35
2023-02-11T13:22:00.334Z,6.45
2023-02-11T13:24:44.605Z,4.70
2023-02-11T13:27:41.600Z,5.28
2023-02-11T13:30:39.644Z,3.85
2023-02-11T13:33:39.644Z,2.50
2023-02-11T13:36:06.589Z,4.43
2023-02-11T13:38:33.854Z,4.28
2023-02-11T13:41:18.145Z,2.35
2023-02-11T13:43:56.736Z,2.80
2023-02-11T13:46:24.077Z,2.30
2023-02-11T13:48:53.163Z,3.60
2023-02-11T13:51:39.074Z,2.67
2023-02-11T13:54:07.793Z,3.60
2023-02-11T13:56:40.436Z,5.35
2023-02-11T13:59:33.494Z,10.30
2023-02-11T14:02:19.328Z,2.47
2023-02-11T14:05:24.357Z,2.17
2023-02-11T14:08:28.623Z,1.30
2023-02-11T14:11:02.914Z,1.25
2023-02-11T14:13:34.783Z,2.40
2023-02-11T14:16:22.581Z,1.98
2023-02-11T14:18:55.116Z,3.42
2023-02-11T14:21:29.518Z,1.58
2023-02-11T14:24:20.638Z,1.40
2023-02-11T14:26:54.505Z,2.03
2023-02-11T14:29:35.706Z,5.15
2023-02-11T14:32:22.942Z,3.67
2023-02-11T14:35:00.108Z,3.78
2023-02-11T14:37:56.320Z,3.63
2023-02-11T14:40:34.670Z,4.07
2023-02-11T14:43:13.796Z,3.10
2023-02-11T14:45:43.254Z,2.38
2023-02-11T14:48:18.474Z,2.47
2023-02-11T14:50:52.872Z,3.63
2023-02-11T14:53:23.621Z,3.53
2023-02-11T14:55:53.425Z,3.45
2023-02-11T14:58:33.874Z,3.50
2023-02-11T15:01:06.597Z,3.63
2023-02-11T15:03:42.262Z,3.35
2023-02-11T15:06:23.310Z,2.80
2023-02-11T15:08:58.417Z,5.53
2023-02-11T15:11:26.151Z,2.70
2023-02-11T15:13:55.488Z,3.75
2023-02-11T15:16:24.944Z,2.75
2023-02-11T15:18:58.260Z,4.25
2023-02-11T15:21:30.072Z,4.65
2023-02-11T15:24:06.531Z,4.68
2023-02-11T15:26:33.649Z,3.97
2023-02-11T15:29:00.616Z,11.43
2023-02-11T15:31:28.643Z,6.68
2023-02-11T15:33:55.755Z,5.88
2023-02-11T15:36:28.698Z,6.40
2023-02-11T15:39:19.463Z,5.80
2023-02-11T15:41:46.389Z,6.40
2023-02-11T15:44:31.492Z,4.30
2023-02-11T15:46:58.726Z,3.78
2023-02-11T15:49:26.673Z,4.80
2023-02-11T15:51:57.029Z,5.05
2023-02-11T15:54:28.063Z,5.60
2023-02-11T15:57:01.814Z,7.07
2023-02-11T15:59:38.199Z,4.22
2023-02-11T16:02:31.273Z,8.00
2023-02-11T16:05:07.704Z,6.72
2023-02-11T16:07:43.898Z,6.43
2023-02-11T16:10:30.297Z,7.25
2023-02-11T16:13:19.277Z,7.70
2023-02-11T16:16:00.969Z,6.85
2023-02-11T16:18:38.650Z,7.90
2023-02-11T16:21:16.833Z,6.45
2023-02-11T16:23:51.370Z,5.90
2023-02-11T16:26:32.926Z,6.53
2023-02-11T16:29:10.033Z,6.93
2023-02-11T16:31:40.028Z,8.00
2023-02-11T16:34:21.827Z,9.15
2023-02-11T16:36:49.565Z,9.90
2023-02-11T16:39:17.657Z,9.20
2023-02-11T16:41:45.186Z,7.53
2023-02-11T16:44:12.258Z,9.10
2023-02-11T16:46:39.232Z,7.45
2023-02-11T16:49:18.319Z,9.55
2023-02-11T16:51:48.350Z,9.43
2023-02-11T16:54:17.596Z,13.10
2023-02-11T16:56:44.695Z,11.27
2023-02-11T16:59:12.050Z,11.00
2023-02-11T17:01:40.475Z,10.05
2023-02-11T17:04:10.768Z,9.38
2023-02-11T17:06:37.674Z,10.43
2023-02-11T17:09:06.789Z,9.38
2023-02-11T17:11:33.655Z,10.20
2023-02-11T17:14:00.608Z,9.85
2023-02-11T17:16:29.947Z,11.82
2023-02-11T17:18:56.836Z,9.95
2023-02-11T17:21:27.111Z,10.45
2023-02-11T17:23:55.653Z,12.27
2023-02-11T17:26:22.511Z,7.82
2023-02-11T17:28:49.324Z,10.63
2023-02-11T17:31:16.477Z,9.52
2023-02-11T17:33:43.429Z,10.50
2023-02-11T17:36:10.901Z,8.90
2023-02-11T17:38:38.264Z,8.38
2023-02-11T17:41:05.711Z,8.52
2023-02-11T17:43:33.053Z,11.90
2023-02-11T17:45:59.978Z,10.30
2023-02-11T17:48:26.869Z,9.55
2023-02-11T17:50:53.778Z,9.70
2023-02-11T17:53:20.679Z,10.05
2023-02-11T17:55:47.935Z,10.88
2023-02-11T17:58:15.183Z,10.40
2023-02-11T18:00:43.408Z,10.30
2023-02-11T18:03:12.671Z,11.77
2023-02-11T18:05:39.561Z,9.57
2023-02-11T18:08:07.506Z,11.93
2023-02-11T18:10:34.916Z,11.38
2023-02-11T18:13:01.880Z,12.65
2023-02-11T18:15:28.786Z,9.73
2023-02-11T18:17:56.034Z,10.02
2023-02-11T18:20:23.073Z,8.80
2023-02-11T18:22:50.181Z,11.85
2023-02-11T18:25:17.459Z,12.82
2023-02-11T18:27:44.501Z,10.82
2023-02-11T18:30:16.206Z,10.80
2023-02-11T18:32:43.456Z,13.43
2023-02-11T18:35:15.178Z,13.00
2023-02-11T18:37:43.127Z,14.57
2023-02-11T18:40:11.049Z,16.98
2023-02-11T18:42:38.540Z,15.13
2023-02-11T18:45:11.531Z,10.73
2023-02-11T18:47:38.887Z,14.35
2023-02-11T18:50:07.469Z,14.18
2023-02-11T18:52:38.125Z,12.88
2023-02-11T18:55:06.268Z,14.13
2023-02-11T18:57:33.089Z,14.73
2023-02-11T19:00:00.180Z,12.00
2023-02-11T19:02:28.638Z,12.07
2023-02-11T19:04:55.592Z,12.65
2023-02-11T19:07:22.427Z,13.77
2023-02-11T19:09:49.473Z,18.63
2023-02-11T19:12:17.135Z,16.90
2023-02-11T19:14:43.954Z,18.58
2023-02-11T19:17:12.578Z,18.95
2023-02-11T19:19:41.017Z,17.05
2023-02-11T19:22:10.582Z,16.98
2023-02-11T19:24:39.278Z,19.55
2023-02-11T19:27:06.227Z,22.30
2023-02-11T19:29:35.299Z,17.48
2023-02-11T19:32:03.547Z,16.73
2023-02-11T19:34:30.512Z,21.05
2023-02-11T19:36:59.609Z,28.70
2023-02-11T19:39:27.068Z,27.45
2023-02-11T19:41:54.074Z,23.45
2023-02-11T19:44:20.946Z,22.98
2023-02-11T19:46:48.850Z,25.08
2023-02-11T19:49:22.810Z,20.95
2023-02-11T19:51:50.794Z,26.75
2023-02-11T19:54:17.764Z,23.38
2023-02-11T19:56:45.467Z,22.45
2023-02-11T19:59:12.420Z,26.40
2023-02-11T20:01:40.279Z,25.25
2023-02-11T20:04:07.721Z,26.67
2023-02-11T20:06:35.513Z,40.60
2023-02-11T20:09:06.611Z,34.42
2023-02-11T20:11:35.119Z,32.30
2023-02-11T20:14:02.438Z,32.20
2023-02-11T20:16:46.984Z,34.05
2023-02-11T20:19:18.352Z,34.80
2023-02-11T20:21:47.496Z,39.33
2023-02-11T20:24:16.154Z,35.95
2023-02-11T20:26:43.439Z,38.60
2023-02-11T20:29:10.369Z,38.70
2023-02-11T20:31:37.611Z,33.03
2023-02-11T20:34:04.763Z,35.83
2023-02-11T20:36:35.669Z,37.88
2023-02-11T20:39:06.298Z,44.15
2023-02-11T20:41:35.645Z,46.42
2023-02-11T20:44:08.380Z,40.13
2023-02-11T20:46:38.331Z,35.85
2023-02-11T20:49:05.964Z,39.00
2023-02-11T20:51:34.493Z,36.33
2023-02-11T20:54:01.753Z,38.40
2023-02-11T20:56:31.851Z,39.50
2023-02-11T20:59:00.206Z,46.75
2023-02-11T21:01:29.907Z,40.33
2023-02-11T21:03:59.357Z,42.85
2023-02-11T21:06:30.784Z,42.45
2023-02-11T21:08:57.827Z,41.30
2023-02-11T21:11:24.760Z,53.63
2023-02-11T21:13:52.268Z,46.65
2023-02-11T21:16:20.554Z,46.75
2023-02-11T21:18:48.920Z,44.60
2023-02-11T21:21:17.615Z,42.80
2023-02-11T21:23:45.174Z,46.58
2023-02-11T21:26:12.273Z,45.78
2023-02-11T21:28:41.038Z,45.30
2023-02-11T21:31:08.758Z,56.60
2023-02-11T21:33:35.913Z,58.08
2023-02-11T21:36:04.938Z,54.47
2023-02-11T21:38:32.794Z,51.72
2023-02-11T21:41:04.664Z,55.13
2023-02-11T21:43:32.110Z,53.70
2023-02-11T21:45:59.299Z,62.15
2023-02-11T21:48:27.006Z,64.50
2023-02-11T21:50:54.424Z,62.22
2023-02-11T21:53:21.289Z,64.90
2023-02-11T21:55:49.400Z,68.80
2023-02-11T21:58:16.386Z,72.50
2023-02-11T22:00:43.400Z,76.88
2023-02-11T22:03:11.890Z,82.28
2023-02-11T22:05:41.512Z,68.47
2023-02-11T22:08:08.544Z,62.10
2023-02-11T22:10:35.386Z,69.75
2023-02-11T22:13:02.623Z,82.60
2023-02-11T22:15:29.484Z,67.82
2023-02-11T22:17:56.790Z,71.78
2023-02-11T22:20:23.793Z,77.72
2023-02-11T22:22:50.913Z,71.30
2023-02-11T22:25:17.978Z,68.95
2023-02-11T22:27:44.828Z,71.28
2023-02-11T22:30:12.284Z,69.28
2023-02-11T22:32:39.213Z,61.15
2023-02-11T22:35:06.571Z,52.03
2023-02-11T22:37:33.426Z,51.40
2023-02-11T22:40:00.348Z,56.35
2023-02-11T22:42:27.238Z,54.60
2023-02-11T22:44:54.162Z,46.40
2023-02-11T22:47:21.033Z,46.08
2023-02-11T22:49:48.002Z,41.55
2023-02-11T22:52:14.878Z,39.38
2023-02-11T22:54:42.113Z,41.53
2023-02-11T22:57:08.958Z,38.42
2023-02-11T22:59:35.903Z,36.55
2023-02-11T23:02:02.903Z,37.25
2023-02-11T23:04:30.818Z,34.42
2023-02-11T23:06:57.742Z,38.25
2023-02-11T23:09:24.633Z,33.40
2023-02-11T23:11:54.395Z,34.45
2023-02-11T23:14:21.828Z,32.38
2023-02-11T23:16:51.514Z,28.38
2023-02-11T23:19:19.917Z,32.83
2023-02-11T23:21:50.289Z,34.65
2023-02-11T23:24:17.124Z,33.28
2023-02-11T23:26:44.656Z,34.28
2023-02-11T23:29:12.393Z,30.50
2023-02-11T23:31:43.189Z,30.30
2023-02-11T23:34:10.167Z,31.90
2023-02-11T23:36:37.453Z,32.30
2023-02-11T23:39:05.364Z,34.60
2023-02-11T23:41:32.286Z,30.58
2023-02-11T23:43:59.720Z,31.95
2023-02-11T23:46:27.853Z,30.45
2023-02-11T23:48:55.214Z,32.10
2023-02-11T23:51:22.399Z,35.90
2023-02-11T23:53:49.859Z,32.83
2023-02-11T23:56:22.602Z,35.65
2023-02-11T23:58:50.544Z,36.15
